createdAt,value
2018-03-11T17:54:52.107Z,93750
2018-03-11T17:57:21.165Z,93754
2018-03-11T17:59:50.173Z,93754
2018-03-11T18:02:19.954Z,93750
2018-03-11T18:04:49.006Z,93770
2018-03-11T18:07:18.041Z,93750
2018-03-11T18:09:47.061Z,93761
2018-03-11T18:12:17.289Z,93759
2018-03-11T18:14:47.128Z,93756
2018-03-11T18:17:16.121Z,93754
2018-03-11T18:19:45.251Z,93767
2018-03-11T18:22:14.260Z,93770
2018-03-11T18:24:43.399Z,93786
2018-03-11T18:27:13.381Z,93768
2018-03-11T18:29:42.394Z,93767
2018-03-11T18:32:12.213Z,93764
2018-03-11T18:34:41.249Z,93771
2018-03-11T18:37:10.259Z,93773
2018-03-11T18:39:39.399Z,93766
2018-03-11T18:42:08.509Z,93769
2018-03-11T18:44:37.557Z,93796
2018-03-11T18:47:06.574Z,93778
2018-03-11T18:49:35.640Z,93784
2018-03-11T18:52:05.414Z,93770
2018-03-11T18:54:34.445Z,93771
2018-03-11T18:57:03.500Z,93773
2018-03-11T18:59:32.537Z,93777
2018-03-11T19:02:01.562Z,93769
2018-03-11T19:04:30.681Z,93767
2018-03-11T19:06:59.734Z,93760
2018-03-11T19:09:28.962Z,93783
2018-03-11T19:11:58.748Z,93750
2018-03-11T19:14:27.847Z,93782
2018-03-11T19:16:57.179Z,93778
2018-03-11T19:19:26.257Z,93748
2018-03-11T19:21:55.274Z,93747
2018-03-11T19:24:25.149Z,93740
2018-03-11T19:26:54.218Z,93735
2018-03-11T19:29:23.231Z,93739
2018-03-11T19:31:52.282Z,93733
2018-03-11T19:34:21.293Z,93726
2018-03-11T19:36:50.349Z,93734
2018-03-11T19:39:20.126Z,93722
2018-03-11T19:41:49.252Z,93721
2018-03-11T19:44:18.217Z,93729
2018-03-11T19:46:47.230Z,93730
2018-03-11T19:49:16.313Z,93730
2018-03-11T19:51:45.326Z,93725
2018-03-11T19:54:15.096Z,93735
2018-03-11T19:56:44.151Z,93723
2018-03-11T19:59:13.936Z,93728
2018-03-11T20:01:42.988Z,93719
2018-03-11T20:04:12.001Z,93712
2018-03-11T20:06:41.054Z,93718
2018-03-11T20:09:10.089Z,93719
2018-03-11T20:11:39.209Z,93718
2018-03-11T20:14:08.273Z,93717
2018-03-11T20:16:37.439Z,93718
2018-03-11T20:19:06.480Z,93716
2018-03-11T20:21:36.038Z,93717
2018-03-11T20:24:05.293Z,93725
2018-03-11T20:26:34.420Z,93713
2018-03-11T20:30:36.725Z,93710
2018-03-11T20:33:05.877Z,93712
2018-03-11T20:35:34.989Z,93703
2018-03-11T20:38:04.476Z,93703
2018-03-11T20:40:33.498Z,93693
2018-03-11T20:43:03.306Z,93690
2018-03-11T20:45:32.325Z,93687
2018-03-11T20:48:01.491Z,93697
2018-03-11T20:50:30.633Z,93697
2018-03-11T20:52:59.669Z,93686
2018-03-11T20:55:28.709Z,93677
2018-03-11T20:57:57.938Z,93667
2018-03-11T21:00:26.994Z,93665
2018-03-11T21:02:56.770Z,93657
2018-03-11T21:05:25.793Z,93658
2018-03-11T21:07:55.606Z,93663
2018-03-11T21:10:25.389Z,93660
2018-03-11T21:12:54.448Z,93658
2018-03-11T21:15:23.463Z,93665
2018-03-11T21:17:52.521Z,93653
2018-03-11T21:20:21.529Z,93664
2018-03-11T21:22:51.372Z,93674
2018-03-11T21:25:20.593Z,93672
2018-03-11T21:27:49.798Z,93663
2018-03-11T21:30:32.218Z,93665
2018-03-11T21:33:02.234Z,93659
2018-03-11T21:35:32.141Z,93665
2018-03-11T21:38:01.598Z,93667
2018-03-11T21:40:31.126Z,93664
2018-03-11T21:43:00.198Z,93666
2018-03-11T21:45:29.352Z,93664
2018-03-11T21:47:58.369Z,93658
2018-03-11T21:50:27.634Z,93657
2018-03-11T21:52:57.437Z,93660
2018-03-11T21:55:26.445Z,93646
2018-03-11T21:57:55.976Z,93649
2018-03-11T22:00:25.967Z,93650
2018-03-11T22:02:55.206Z,93657
2018-03-11T22:05:24.399Z,93591
2018-03-11T22:07:53.560Z,93643
2018-03-11T22:10:22.653Z,93640
2018-03-11T22:12:51.993Z,93640
2018-03-11T22:15:21.826Z,93634
2018-03-11T22:17:50.934Z,93643
2018-03-11T22:20:19.983Z,93637
2018-03-11T22:22:49.135Z,93628
2018-03-11T22:25:18.141Z,93635
2018-03-11T22:27:47.370Z,93629
2018-03-11T22:30:16.383Z,93625
2018-03-11T22:32:46.190Z,93621
2018-03-11T22:35:16.000Z,93624
2018-03-11T22:37:45.109Z,93625
2018-03-11T22:40:14.881Z,93632
2018-03-11T22:42:43.912Z,93650
2018-03-11T22:45:13.857Z,93621
2018-03-11T22:47:42.881Z,93626
2018-03-11T22:50:13.220Z,93618
2018-03-11T22:52:42.285Z,93617
2018-03-11T22:55:11.289Z,93623
2018-03-11T22:57:40.297Z,93621
2018-03-11T23:00:09.337Z,93623
2018-03-11T23:02:39.113Z,93613
2018-03-11T23:05:08.177Z,93616
2018-03-11T23:07:37.189Z,93615
2018-03-11T23:10:06.321Z,93611
2018-03-11T23:12:36.136Z,93610
2018-03-11T23:15:05.905Z,93616
2018-03-11T23:17:34.917Z,93617
2018-03-11T23:20:03.987Z,93616
2018-03-11T23:22:33.031Z,93617
2018-03-11T23:25:02.805Z,93618
2018-03-11T23:27:31.854Z,93617
2018-03-11T23:30:00.869Z,93624
2018-03-11T23:32:29.915Z,93625
2018-03-11T23:34:58.954Z,93633
2018-03-11T23:37:27.961Z,93637
2018-03-11T23:39:57.030Z,93643
2018-03-11T23:42:26.046Z,93644
2018-03-11T23:44:55.321Z,93643
2018-03-11T23:47:25.081Z,93654
2018-03-11T23:49:54.157Z,93644
2018-03-11T23:52:23.178Z,93648
2018-03-11T23:54:52.190Z,93666
2018-03-11T23:57:22.004Z,93642
2018-03-11T23:59:51.805Z,93641
